Time;durP1;ratioP1;P1;durP2;ratioP2;P2;SDS_P1;SDS_P2;PMS_P1;PMS_P2;Temp;Humidity;BMP_temperature;BMP_pressure;BME280_temperature;BME280_humidity;BME280_pressure;Samples;Min_cycle;Max_cycle;Signal;HPM_P1;HPM_P2
2021/07/26 00:00:02;;;;;;;19.77;13.90;;;17.50;99.90;;;17.24;100.00;100836.34;4166903;28;20096;-74
2021/07/26 00:02:03;;;;;;;18.98;12.07;;;17.50;99.90;;;17.21;100.00;100834.91;4151156;28;20597;-75
2021/07/26 00:04:04;;;;;;;21.05;13.23;;;17.50;99.90;;;17.20;100.00;100838.59;4167173;28;20078;-75
2021/07/26 00:06:05;;;;;;;15.20;12.13;;;17.40;99.90;;;17.14;100.00;100831.41;4168196;28;20037;-75
2021/07/26 00:08:06;;;;;;;15.93;11.95;;;17.40;99.90;;;17.20;100.00;100824.44;4168454;28;20045;-75
2021/07/26 00:10:08;;;;;;;16.38;12.70;;;17.40;99.90;;;17.19;100.00;100820.13;4167174;28;20490;-75
2021/07/26 00:12:09;;;;;;;14.63;12.23;;;17.40;99.90;;;17.11;100.00;100823.78;4160775;28;20040;-75
2021/07/26 00:14:10;;;;;;;11.88;10.60;;;17.40;99.90;;;17.21;100.00;100818.91;4167901;28;20404;-75
2021/07/26 00:16:11;;;;;;;17.48;14.05;;;17.40;99.90;;;17.15;100.00;100827.69;4167133;28;20036;-75
2021/07/26 00:18:12;;;;;;;15.35;11.75;;;17.40;99.90;;;17.04;100.00;100818.41;4168305;28;20036;-75
2021/07/26 00:20:15;;;;;;;15.55;11.45;;;17.30;99.90;;;17.09;100.00;100825.81;4166742;28;20404;-75
2021/07/26 00:22:16;;;;;;;18.43;12.50;;;17.30;99.90;;;17.06;100.00;100823.53;4168277;28;20032;-74
2021/07/26 00:24:18;;;;;;;16.38;12.15;;;17.30;99.90;;;17.04;100.00;100817.59;4168102;28;20620;-75
2021/07/26 00:26:19;;;;;;;19.33;13.82;;;17.30;99.90;;;17.06;100.00;100815.53;4167079;28;20028;-75
2021/07/26 00:28:20;;;;;;;18.45;14.15;;;17.30;99.90;;;17.00;100.00;100825.16;4168143;28;20025;-75
2021/07/26 00:30:22;;;;;;;16.80;13.77;;;17.30;99.90;;;16.97;100.00;100814.03;4167841;28;20049;-75
2021/07/26 00:32:22;;;;;;;17.48;12.75;;;17.20;99.90;;;17.07;100.00;100823.34;4168209;28;20393;-75
2021/07/26 00:34:27;;;;;;;16.58;13.95;;;17.30;99.90;;;17.06;100.00;100826.19;4167006;28;20026;-75
2021/07/26 00:36:28;;;;;;;14.30;12.07;;;17.20;99.90;;;17.02;100.00;100828.44;4166769;28;20072;-75
2021/07/26 00:38:29;;;;;;;13.90;11.10;;;17.20;99.90;;;17.04;100.00;100833.59;4167981;28;20600;-75
2021/07/26 00:40:29;;;;;;;17.45;11.93;;;17.20;99.90;;;16.99;100.00;100828.03;4168111;28;20030;-75
2021/07/26 00:42:30;;;;;;;13.38;10.93;;;17.20;99.90;;;17.07;100.00;100834.00;4183240;28;20053;-74
2021/07/26 00:44:33;;;;;;;14.68;12.55;;;17.20;99.90;;;17.01;100.00;100836.63;4169246;28;20030;-75
2021/07/26 00:46:35;;;;;;;16.90;11.18;;;17.20;99.90;;;16.96;100.00;100837.25;4171225;28;20120;-74
2021/07/26 00:48:36;;;;;;;17.23;12.80;;;17.20;99.90;;;16.91;100.00;100830.81;4170085;28;20033;-75
2021/07/26 00:50:37;;;;;;;15.18;12.13;;;17.10;99.90;;;16.94;100.00;100831.25;4170202;28;20025;-75
2021/07/26 00:52:38;;;;;;;16.45;12.00;;;17.10;99.90;;;16.94;100.00;100838.41;4153429;28;20030;-75
2021/07/26 00:54:40;;;;;;;17.52;10.80;;;17.10;99.90;;;16.97;100.00;100833.53;4170985;28;20396;-74
2021/07/26 00:56:42;;;;;;;14.98;10.02;;;17.10;99.90;;;16.96;100.00;100834.56;4170138;28;20080;-75
2021/07/26 00:58:44;;;;;;;13.15;10.75;;;17.20;99.90;;;16.93;100.00;100831.47;4153350;28;20064;-75
2021/07/26 01:00:45;;;;;;;16.77;13.60;;;17.10;99.90;;;17.00;100.00;100841.13;4169410;28;20025;-75
2021/07/26 01:02:46;;;;;;;17.63;13.05;;;17.20;99.90;;;16.89;100.00;100831.03;4169922;28;20085;-75
2021/07/26 01:04:46;;;;;;;20.60;14.05;;;17.10;99.90;;;16.93;100.00;100832.28;4170945;28;20092;-75
2021/07/26 01:06:48;;;;;;;18.70;14.02;;;17.20;99.90;;;16.96;100.00;100825.75;4153495;28;20022;-75
2021/07/26 01:08:49;;;;;;;19.70;13.20;;;17.10;99.90;;;17.00;100.00;100827.81;4162700;28;20026;-75
2021/07/26 01:10:50;;;;;;;17.65;12.50;;;17.20;99.90;;;16.94;100.00;100825.09;4186194;28;20036;-75
2021/07/26 01:12:50;;;;;;;19.58;14.23;;;17.10;99.90;;;16.87;100.00;100810.94;4169521;28;20033;-74
2021/07/26 01:14:52;;;;;;;20.33;13.82;;;17.20;99.90;;;16.89;100.00;100814.22;4160036;28;20057;-74
2021/07/26 01:16:53;;;;;;;15.68;12.27;;;17.20;99.90;;;16.89;100.00;100831.03;4170815;28;20481;-74
2021/07/26 01:18:54;;;;;;;15.05;13.27;;;17.10;99.90;;;16.92;100.00;100833.31;4170683;28;20030;-74
2021/07/26 01:21:02;;;;;;;18.73;13.48;;;17.20;99.90;;;16.82;100.00;100826.66;4170593;28;20034;-74
2021/07/26 01:23:03;;;;;;;15.95;13.30;;;17.10;99.90;;;16.76;100.00;100827.44;4170757;28;20026;-74
2021/07/26 01:25:06;;;;;;;18.92;14.43;;;17.00;99.90;;;16.79;100.00;100835.03;4170566;28;20029;-74
2021/07/26 01:27:07;;;;;;;14.47;12.17;;;17.10;99.90;;;16.70;100.00;100826.38;4169651;28;20035;-74
2021/07/26 01:29:11;;;;;;;19.92;14.40;;;17.00;99.90;;;16.90;100.00;100830.03;4170657;28;20053;-75
2021/07/26 01:31:13;;;;;;;13.75;12.07;;;17.00;99.90;;;16.81;100.00;100817.03;4169303;28;20033;-75
2021/07/26 01:33:17;;;;;;;21.38;15.10;;;17.00;99.90;;;16.90;100.00;100827.34;4169154;28;20091;-74
2021/07/26 01:35:17;;;;;;;17.95;12.43;;;17.10;99.90;;;16.94;100.00;100841.91;4169230;28;20076;-74
2021/07/26 01:37:18;;;;;;;17.05;12.65;;;17.10;99.90;;;16.90;100.00;100839.84;4169422;28;20057;-74
2021/07/26 01:39:19;;;;;;;15.38;11.38;;;17.00;99.90;;;16.91;100.00;100836.16;4169204;28;20032;-74
2021/07/26 01:41:23;;;;;;;19.45;13.63;;;17.10;99.90;;;16.87;100.00;100841.06;4170623;28;20026;-74
2021/07/26 01:43:25;;;;;;;19.48;13.13;;;17.10;99.90;;;16.89;100.00;100841.69;4168989;28;20130;-75
2021/07/26 01:45:27;;;;;;;14.68;13.05;;;17.00;99.90;;;16.82;100.00;100835.47;4170167;28;20392;-74
2021/07/26 01:47:28;;;;;;;22.67;13.65;;;17.00;99.90;;;16.82;100.00;100824.00;4152869;28;20465;-74
2021/07/26 01:49:51;;;;;;;21.90;16.38;;;17.00;99.90;;;16.96;100.00;100839.91;4168980;28;20033;-75
2021/07/26 01:51:52;;;;;;;20.85;14.90;;;17.10;99.90;;;16.91;100.00;100846.81;4170377;28;20498;-75
2021/07/26 01:53:54;;;;;;;21.38;16.42;;;17.00;99.90;;;16.93;100.00;100844.78;4169106;28;20026;-75
2021/07/26 01:55:55;;;;;;;17.83;14.23;;;17.00;99.90;;;16.93;100.00;100842.13;4151494;28;20551;-75
2021/07/26 01:57:57;;;;;;;18.00;14.40;;;17.00;99.90;;;16.95;100.00;100846.25;4168896;28;20033;-75
2021/07/26 01:59:58;;;;;;;18.80;13.77;;;17.00;99.90;;;16.89;100.00;100846.19;4168828;28;20029;-74
2021/07/26 02:01:59;;;;;;;20.10;14.32;;;17.00;99.90;;;16.81;100.00;100836.50;4168944;28;20546;-74
2021/07/26 02:04:00;;;;;;;21.85;15.15;;;17.00;99.90;;;16.87;100.00;100848.22;4168839;28;20116;-75
2021/07/26 02:06:01;;;;;;;20.00;14.55;;;17.00;99.90;;;16.91;100.00;100854.78;4168880;28;20527;-75
2021/07/26 02:08:03;;;;;;;20.10;14.57;;;17.00;99.90;;;17.02;100.00;100856.94;4171843;28;20115;-75
2021/07/26 02:10:04;;;;;;;17.17;15.02;;;17.00;99.90;;;17.08;100.00;100859.63;4185363;28;20016;-74
2021/07/26 02:12:06;;;;;;;22.08;16.80;;;17.10;99.90;;;17.10;100.00;100854.13;4168847;28;20503;-75
2021/07/26 02:14:10;;;;;;;20.58;16.65;;;17.10;99.90;;;17.07;100.00;100855.34;4168382;28;20075;-75
2021/07/26 02:16:11;;;;;;;;;;;17.10;99.90;;;16.94;100.00;100849.91;4185417;28;20033;-74
2021/07/26 02:18:12;;;;;;;20.25;15.10;;;17.10;99.90;;;16.94;100.00;100855.25;4169904;28;20004;-75
2021/07/26 02:20:13;;;;;;;22.58;16.48;;;17.10;99.90;;;16.97;100.00;100862.00;4169930;28;20076;-75
2021/07/26 02:22:14;;;;;;;17.02;15.18;;;17.10;99.90;;;16.95;100.00;100870.22;4168734;28;20032;-75
2021/07/26 02:24:15;;;;;;;17.13;13.13;;;17.10;99.90;;;16.88;100.00;100860.50;4199011;28;20025;-75
2021/07/26 02:26:16;;;;;;;20.55;15.57;;;17.00;99.90;;;16.79;100.00;100841.19;4168768;28;20052;-75
2021/07/26 02:28:17;;;;;;;19.20;17.10;;;17.00;99.90;;;16.87;100.00;100865.03;4161695;28;20025;-75
2021/07/26 02:30:17;;;;;;;23.90;17.17;;;17.00;99.90;;;16.88;100.00;100860.50;4168402;28;20037;-75
2021/07/26 02:32:18;;;;;;;20.33;17.38;;;17.00;99.90;;;16.85;100.00;100860.91;4168220;28;20049;-75
2021/07/26 02:34:19;;;;;;;16.10;14.20;;;17.00;99.90;;;16.86;100.00;100866.06;4169810;28;20036;-74
2021/07/26 02:36:20;;;;;;;23.70;16.95;;;17.00;99.90;;;16.93;100.00;100869.59;4168356;28;20025;-75
2021/07/26 02:38:21;;;;;;;22.25;15.35;;;17.00;99.90;;;16.82;100.00;100851.47;4168308;28;20524;-74
2021/07/26 02:40:22;;;;;;;20.90;16.98;;;17.00;99.90;;;16.81;100.00;100865.81;4168506;28;20026;-74
2021/07/26 02:42:23;;;;;;;15.52;13.70;;;17.00;99.90;;;16.75;100.00;100863.94;4141404;28;20397;-74
2021/07/26 02:44:24;;;;;;;21.00;15.38;;;17.00;99.90;;;16.71;100.00;100860.00;4169248;28;20028;-74
2021/07/26 02:46:25;;;;;;;28.05;20.20;;;17.00;99.90;;;16.73;100.00;100867.78;4169405;28;20026;-74
2021/07/26 02:48:26;;;;;;;25.50;17.42;;;17.00;99.90;;;16.85;100.00;100871.56;4168046;28;20026;-75
2021/07/26 02:50:27;;;;;;;20.60;17.45;;;17.00;99.90;;;16.88;100.00;100872.00;4151646;28;20097;-74
2021/07/26 02:52:27;;;;;;;18.50;15.38;;;17.00;99.90;;;16.81;100.00;100865.81;4167993;28;20040;-74
2021/07/26 02:54:28;;;;;;;21.60;16.15;;;17.00;99.90;;;16.68;100.00;100859.53;4168047;28;20392;-74
2021/07/26 02:56:29;;;;;;;23.60;18.85;;;17.00;99.90;;;16.74;100.00;100858.78;4150341;28;20026;-75
2021/07/26 02:58:30;;;;;;;20.10;16.77;;;17.00;99.90;;;16.78;100.00;100865.38;4184625;28;20029;-74
2021/07/26 03:00:31;;;;;;;26.33;16.67;;;17.00;99.90;;;16.79;100.00;100864.34;4167854;28;20034;-75
2021/07/26 03:02:36;;;;;;;22.15;17.48;;;17.00;99.90;;;16.73;100.00;100863.28;4151439;28;20030;-75
2021/07/26 03:04:37;;;;;;;17.65;14.90;;;17.00;99.90;;;16.66;100.00;100862.41;4167742;28;20076;-74
2021/07/26 03:06:39;;;;;;;20.67;15.77;;;16.90;99.90;;;16.55;100.00;100855.75;4169035;28;20477;-75
2021/07/26 03:08:40;;;;;;;23.83;17.92;;;16.90;99.90;;;16.45;100.00;100863.22;4167874;28;20393;-75
2021/07/26 03:10:41;;;;;;;22.92;15.65;;;16.80;99.90;;;16.42;100.00;100868.94;4167874;28;20112;-75
2021/07/26 03:12:42;;;;;;;21.83;18.35;;;16.80;99.90;;;16.26;100.00;100855.88;4167662;28;20429;-74
2021/07/26 03:14:42;;;;;;;23.40;18.23;;;16.70;99.90;;;16.20;100.00;100861.94;4151081;28;20065;-75
2021/07/26 03:16:43;;;;;;;17.83;14.75;;;16.60;99.90;;;16.23;100.00;100874.06;4167749;28;20044;-74
2021/07/26 03:18:44;;;;;;;21.45;16.45;;;16.60;99.90;;;16.19;100.00;100870.94;4168838;28;20036;-75
2021/07/26 03:20:48;;;;;;;17.63;14.43;;;16.60;99.90;;;16.19;100.00;100870.94;4167448;28;20029;-74
2021/07/26 03:22:56;;;;;;;23.90;18.63;;;16.50;99.90;;;16.23;100.00;100880.22;4151138;28;20500;-74
2021/07/26 03:24:57;;;;;;;19.90;16.25;;;16.50;99.90;;;16.18;100.00;100866.66;4168624;28;20378;-74
2021/07/26 03:26:58;;;;;;;19.55;16.42;;;16.50;99.90;;;16.19;100.00;100870.94;4150996;28;20037;-74
2021/07/26 03:28:59;;;;;;;20.45;17.02;;;16.50;99.90;;;16.28;100.00;100868.97;4200269;28;20098;-75
2021/07/26 03:31:00;;;;;;;23.30;16.17;;;16.50;99.90;;;16.33;100.00;100870.09;4167779;28;20061;-75
2021/07/26 03:33:01;;;;;;;21.35;18.13;;;16.60;99.90;;;16.55;100.00;100871.72;4160302;28;20025;-75
2021/07/26 03:35:04;;;;;;;23.23;17.83;;;16.60;99.90;;;16.51;100.00;100867.78;4167437;28;20045;-74
2021/07/26 03:37:05;;;;;;;27.20;18.05;;;16.70;99.90;;;16.63;100.00;100889.44;4167285;28;20030;-75
2021/07/26 03:39:06;;;;;;;25.73;17.55;;;16.70;99.90;;;16.61;100.00;100877.34;4168567;28;20099;-75
2021/07/26 03:41:07;;;;;;;20.15;15.60;;;16.80;99.90;;;16.64;100.00;100883.06;4167350;28;20034;-75
2021/07/26 03:43:08;;;;;;;22.67;17.33;;;16.80;99.90;;;16.61;100.00;100878.13;4178229;28;20052;-75
2021/07/26 03:45:12;;;;;;;20.77;17.00;;;16.80;99.90;;;16.68;100.00;100878.19;4150664;28;20026;-74
2021/07/26 03:47:13;;;;;;;23.38;18.42;;;16.90;99.90;;;16.68;100.00;100886.19;4167446;28;20108;-74
2021/07/26 03:49:14;;;;;;;23.42;18.23;;;16.90;99.90;;;16.74;100.00;100888.06;4167287;28;20092;-74
2021/07/26 03:51:15;;;;;;;22.88;17.38;;;16.90;99.90;;;16.76;100.00;100875.38;4162690;28;20028;-75
2021/07/26 03:53:20;;;;;;;24.70;17.70;;;17.00;99.90;;;16.78;100.00;100884.03;4168325;28;20534;-74
2021/07/26 03:55:30;;;;;;;24.27;17.35;;;17.00;99.90;;;16.74;100.00;100877.41;4151346;28;20587;-74
2021/07/26 03:57:31;;;;;;;20.65;15.45;;;17.00;99.90;;;16.75;100.00;100871.09;4167669;28;20089;-74
2021/07/26 03:59:32;;;;;;;23.90;17.83;;;17.00;99.90;;;16.72;100.00;100874.97;4166642;28;20025;-74
2021/07/26 04:01:33;;;;;;;23.13;17.70;;;17.10;99.90;;;16.91;100.00;100884.09;4167929;28;20029;-75
2021/07/26 04:03:34;;;;;;;23.85;18.48;;;17.10;99.90;;;17.00;100.00;100885.63;4167420;28;20061;-74
2021/07/26 04:05:44;;;;;;;21.02;16.38;;;17.10;99.90;;;17.07;100.00;100890.00;4167148;28;20519;-75
2021/07/26 04:07:47;;;;;;;21.85;15.90;;;17.20;99.90;;;17.09;100.00;100879.13;4167031;28;20022;-74
2021/07/26 04:09:52;;;;;;;20.10;16.05;;;17.30;99.90;;;17.06;100.00;100876.84;4167319;28;20113;-74
2021/07/26 04:12:03;;;;;;;23.80;16.15;;;17.30;99.90;;;17.07;100.00;100892.66;4167135;28;20104;-74
2021/07/26 04:14:06;;;;;;;17.75;15.20;;;17.30;99.90;;;16.96;100.00;100876.38;4166708;28;20091;-75
2021/07/26 04:16:07;;;;;;;26.95;16.95;;;17.30;99.90;;;16.98;100.00;100888.50;4167166;28;20559;-75
2021/07/26 04:18:08;;;;;;;20.20;17.23;;;17.20;99.90;;;17.00;100.00;100896.28;4150727;28;20029;-75
2021/07/26 04:20:09;;;;;;;21.40;16.27;;;17.30;99.90;;;17.08;100.00;100894.28;4169844;28;20056;-75
2021/07/26 04:22:10;;;;;;;22.73;17.02;;;17.30;99.90;;;17.12;100.00;100892.06;4170408;28;20116;-74
2021/07/26 04:24:11;;;;;;;19.58;16.05;;;17.30;99.90;;;17.10;100.00;100891.44;4169360;28;20021;-75
2021/07/26 04:26:12;;;;;;;18.25;14.35;;;17.30;99.90;;;17.10;100.00;100899.44;4170719;28;20022;-75
2021/07/26 04:28:13;;;;;;;21.38;16.25;;;17.30;99.90;;;17.05;100.00;100891.22;4162496;28;20396;-75
2021/07/26 04:30:15;;;;;;;22.08;16.42;;;17.20;99.90;;;17.04;100.00;100894.88;4170160;28;20030;-74
2021/07/26 04:32:16;;;;;;;21.88;15.30;;;17.20;99.90;;;17.04;100.00;100898.38;4170264;28;20029;-74
2021/07/26 04:34:17;;;;;;;26.40;16.90;;;17.20;99.90;;;17.08;100.00;100904.16;4158544;28;20396;-74
2021/07/26 04:36:18;;;;;;;19.45;15.23;;;17.20;99.90;;;16.99;99.63;100891.97;4153868;28;20034;-75
2021/07/26 04:38:19;;;;;;;26.65;17.00;;;17.20;99.90;;;16.97;100.00;100897.50;4165962;28;20021;-75
2021/07/26 04:40:20;;;;;;;21.92;16.77;;;17.20;99.90;;;16.82;100.00;100891.44;4170067;28;20091;-75
2021/07/26 04:42:21;;;;;;;21.35;15.40;;;17.10;99.90;;;16.81;100.00;100903.13;4170055;28;20036;-75
2021/07/26 04:44:21;;;;;;;23.25;17.35;;;17.10;99.90;;;16.84;100.00;100908.06;4153364;28;20087;-75
2021/07/26 04:46:22;;;;;;;16.58;14.55;;;17.10;99.90;;;16.77;100.00;100898.34;4171369;28;20048;-74
2021/07/26 04:48:23;;;;;;;22.00;15.50;;;17.00;99.90;;;16.84;100.00;100902.75;4170179;28;20017;-75
2021/07/26 04:50:24;;;;;;;17.65;14.88;;;17.00;99.90;;;16.74;100.00;100914.72;4169960;28;20063;-75
2021/07/26 04:52:26;;;;;;;21.67;17.30;;;16.90;99.90;;;16.70;100.00;100908.13;4170167;28;20032;-74
2021/07/26 04:54:27;;;;;;;20.88;16.77;;;16.90;99.90;;;16.86;100.00;100915.84;4163789;28;20068;-75
2021/07/26 04:56:28;;;;;;;21.85;17.55;;;17.00;99.90;;;16.81;100.00;100913.78;4170032;28;20030;-74
2021/07/26 04:58:29;;;;;;;21.50;17.40;;;17.00;99.90;;;16.84;100.00;100923.22;4169923;28;20544;-74
2021/07/26 05:00:30;;;;;;;19.80;16.67;;;17.00;99.90;;;16.63;100.00;100921.41;4169191;28;20025;-74
2021/07/26 05:02:31;;;;;;;22.23;16.23;;;17.00;99.90;;;16.64;100.00;100932.84;4171136;28;20040;-75
2021/07/26 05:04:32;;;;;;;19.77;16.35;;;17.00;99.90;;;16.50;100.00;100935.38;4169752;28;20074;-74
2021/07/26 05:06:33;;;;;;;27.42;18.20;;;16.90;99.90;;;16.41;100.00;100920.53;4186503;28;20610;-74
2021/07/26 05:08:34;;;;;;;23.30;18.42;;;16.90;99.90;;;16.49;100.00;100931.06;4169851;28;20018;-75
2021/07/26 05:10:35;;;;;;;27.20;17.52;;;16.80;99.90;;;16.63;100.00;100936.56;4169836;28;20393;-75
2021/07/26 05:12:36;;;;;;;24.83;17.52;;;16.90;99.90;;;16.66;100.00;100939.66;4169944;28;20034;-75
2021/07/26 05:14:37;;;;;;;26.30;17.80;;;16.90;99.90;;;16.62;100.00;100940.22;4169542;28;20057;-75
2021/07/26 05:16:37;;;;;;;23.15;18.08;;;16.90;99.90;;;16.57;100.00;100938.97;4169818;28;20079;-75
2021/07/26 05:18:38;;;;;;;22.98;17.58;;;17.00;99.90;;;16.54;100.00;100938.53;4147208;28;20034;-75
2021/07/26 05:20:39;;;;;;;24.60;17.85;;;17.00;99.90;;;16.53;100.00;100948.31;4185865;28;20075;-74
2021/07/26 05:22:40;;;;;;;23.98;19.52;;;16.90;99.90;;;16.41;100.00;100955.16;4153076;28;20074;-75
2021/07/26 05:24:42;;;;;;;22.05;18.55;;;16.90;99.90;;;16.27;100.00;100952.53;4186171;28;20103;-74
2021/07/26 05:26:43;;;;;;;23.77;19.08;;;16.90;99.90;;;16.33;100.00;100949.94;4169583;28;20033;-75
2021/07/26 05:28:44;;;;;;;24.17;19.25;;;16.80;99.90;;;16.40;100.00;100958.81;4169466;28;20030;-74
2021/07/26 05:30:44;;;;;;;27.23;19.73;;;16.90;99.90;;;16.31;100.00;100967.94;4138664;28;20397;-75
2021/07/26 05:32:45;;;;;;;26.13;18.45;;;16.90;99.90;;;16.29;100.00;100954.00;4169748;28;20026;-75
2021/07/26 05:34:47;;;;;;;23.50;19.30;;;16.90;99.90;;;16.34;100.00;100962.22;4170582;28;20094;-75
2021/07/26 05:36:48;;;;;;;23.67;19.40;;;16.90;99.90;;;16.30;100.00;100966.28;4169364;28;20033;-75
2021/07/26 05:38:50;;;;;;;23.67;18.50;;;16.90;99.90;;;16.26;100.00;100959.69;4169453;28;20038;-74
2021/07/26 05:40:53;;;;;;;27.02;18.58;;;16.80;99.90;;;16.40;100.00;100974.78;4164447;28;20025;-75
2021/07/26 05:42:54;;;;;;;29.75;19.40;;;16.80;99.90;;;16.38;100.00;100971.50;4170314;28;20041;-75
2021/07/26 05:44:56;;;;;;;21.80;17.80;;;16.80;99.90;;;16.40;100.00;100974.78;4170294;28;20381;-75
2021/07/26 05:46:57;;;;;;;25.88;18.77;;;16.80;99.90;;;16.57;100.00;100980.75;4152889;28;20041;-75
2021/07/26 05:48:58;;;;;;;24.42;18.42;;;16.90;99.90;;;16.64;100.00;100986.94;4169336;28;20022;-75
2021/07/26 05:50:59;;;;;;;26.10;17.58;;;16.90;99.90;;;16.61;100.00;100981.22;4169901;28;20540;-75
2021/07/26 05:53:05;;;;;;;22.17;17.27;;;16.90;99.90;;;16.56;100.00;100984.41;4179270;28;20064;-75
2021/07/26 05:55:06;;;;;;;25.98;19.73;;;16.90;99.90;;;16.54;100.00;100975.81;4172440;28;20485;-75
2021/07/26 05:57:12;;;;;;;31.73;19.17;;;17.00;99.90;;;16.57;100.00;100981.59;4169348;28;20048;-75
2021/07/26 05:59:13;;;;;;;24.25;17.75;;;16.90;99.90;;;16.69;100.00;100984.56;4169823;28;20025;-75
2021/07/26 06:03:19;;;;;;;23.13;17.65;;;17.00;99.90;;;16.84;100.00;100981.84;4169193;28;20119;-75
2021/07/26 06:05:20;;;;;;;25.15;18.90;;;17.10;99.90;;;16.82;100.00;100976.69;4170141;28;20439;-75
2021/07/26 06:07:20;;;;;;;22.95;17.23;;;17.10;99.90;;;16.73;100.00;100977.81;4168778;28;20033;-75
2021/07/26 06:09:26;;;;;;;24.10;17.85;;;17.10;99.90;;;16.72;100.00;100973.53;4149628;28;20018;-75
2021/07/26 06:11:28;;;;;;;20.77;17.15;;;17.10;99.90;;;16.81;100.00;100983.06;4168716;28;20036;-75
2021/07/26 06:13:30;;;;;;;26.35;17.15;;;17.10;99.90;;;16.88;100.00;100988.41;4169764;28;20064;-75
2021/07/26 06:15:30;;;;;;;24.23;18.17;;;17.20;99.90;;;16.90;100.00;100981.06;4168205;28;20108;-75
2021/07/26 06:17:31;;;;;;;24.23;18.95;;;17.20;99.90;;;16.96;99.45;100983.81;4148658;28;20034;-75
2021/07/26 06:19:32;;;;;;;25.05;18.50;;;17.40;99.90;;;17.00;100.00;100982.38;4166923;28;20095;-75
2021/07/26 06:21:33;;;;;;;19.90;16.02;;;17.30;99.90;;;16.98;100.00;100965.78;4174892;28;20029;-75
2021/07/26 06:23:35;;;;;;;19.33;14.93;;;17.40;99.90;;;17.03;100.00;100986.50;4167793;28;20029;-75
2021/07/26 06:25:36;;;;;;;17.27;14.48;;;17.40;99.90;;;16.98;100.00;100965.78;4167783;28;20036;-75
2021/07/26 06:27:36;;;;;;;20.27;15.73;;;17.40;99.90;;;17.07;98.94;100974.44;4169438;28;20033;-75
2021/07/26 06:29:37;;;;;;;23.35;15.75;;;17.40;99.90;;;17.13;99.49;100985.19;4167594;28;20036;-75
2021/07/26 06:31:39;;;;;;;21.45;14.32;;;17.50;99.90;;;17.14;99.93;100983.34;4168977;28;20405;-76
2021/07/26 06:33:40;;;;;;;22.75;17.42;;;17.50;99.90;;;17.25;98.48;100977.47;4167375;28;20029;-74
2021/07/26 06:35:41;;;;;;;20.45;15.07;;;17.60;99.90;;;17.29;98.82;100983.25;4168940;28;20061;-74
2021/07/26 06:37:41;;;;;;;17.02;13.63;;;17.60;99.90;;;17.23;99.58;100979.53;4167797;28;20084;-75
2021/07/26 06:39:42;;;;;;;22.27;15.77;;;17.70;99.90;;;17.34;99.00;100989.66;4169158;28;20033;-78
2021/07/26 06:41:43;;;;;;;16.75;13.52;;;17.70;99.90;;;17.31;99.81;100984.69;4167101;28;20075;-77
2021/07/26 06:43:45;;;;;;;20.55;15.70;;;17.70;99.90;;;17.33;99.67;100979.97;4166119;28;20578;-76
2021/07/26 06:45:46;;;;;;;23.30;16.80;;;17.80;99.90;;;17.43;99.86;100990.31;4191974;28;20408;-75
2021/07/26 06:47:49;;;;;;;24.40;16.60;;;17.80;99.90;;;17.58;99.31;100996.41;4159586;28;20030;-75
2021/07/26 06:49:50;;;;;;;21.73;15.93;;;17.90;99.90;;;17.57;98.63;100998.25;4166292;28;20029;-75
2021/07/26 06:51:51;;;;;;;21.83;14.85;;;17.90;99.90;;;17.60;98.26;100991.69;4168825;28;20051;-75
2021/07/26 06:53:52;;;;;;;17.27;14.57;;;18.00;99.90;;;17.61;98.11;100994.19;4166724;28;20641;-75
2021/07/26 06:55:53;;;;;;;19.92;14.15;;;18.00;99.90;;;17.65;98.37;100990.09;4168654;28;20033;-75
2021/07/26 06:57:54;;;;;;;18.10;13.38;;;18.00;99.90;;;17.56;98.47;100988.59;4168021;28;20083;-75
2021/07/26 06:59:55;;;;;;;22.70;14.65;;;18.10;99.90;;;17.57;98.50;100984.91;4166171;28;20034;-76
2021/07/26 07:01:56;;;;;;;21.38;14.32;;;18.00;99.90;;;17.79;96.05;100990.16;4167580;28;20477;-76
2021/07/26 07:03:56;;;;;;;22.15;14.02;;;18.20;99.90;;;17.71;95.96;100990.34;4168341;28;20025;-75
2021/07/26 07:06:08;;;;;;;15.90;10.85;;;18.20;99.90;;;17.71;97.37;100995.69;4167287;28;20047;-75
2021/07/26 07:08:09;;;;;;;13.82;10.77;;;18.20;99.90;;;17.65;97.90;100986.63;4183060;28;20059;-75
2021/07/26 07:10:11;;;;;;;19.75;13.43;;;18.20;99.90;;;17.71;98.45;100995.69;4162228;28;20525;-77
2021/07/26 07:12:17;;;;;;;17.73;14.10;;;18.20;99.90;;;17.90;96.85;100992.28;4156105;28;20030;-75
2021/07/26 07:14:18;;;;;;;21.38;13.32;;;18.30;99.90;;;17.90;96.90;100982.44;4194169;28;20032;-76
2021/07/26 07:16:21;;;;;;;17.80;13.27;;;18.40;99.90;;;18.01;97.21;100991.75;4169096;28;20021;-76
2021/07/26 07:18:22;;;;;;;15.50;12.30;;;18.40;99.90;;;18.00;97.35;100990.09;4168893;28;20130;-76
2021/07/26 07:20:23;;;;;;;15.45;10.73;;;18.40;99.90;;;18.02;97.77;100994.19;4150943;28;20030;-76
2021/07/26 07:22:24;;;;;;;17.80;11.68;;;18.50;99.90;;;17.99;98.60;100989.25;4167618;28;20025;-76
2021/07/26 07:24:25;;;;;;;16.02;12.05;;;18.50;99.90;;;18.12;95.46;100985.81;4167529;28;20052;-76
2021/07/26 07:26:27;;;;;;;16.10;11.77;;;18.60;99.90;;;18.10;96.02;100998.53;4168887;28;20520;-76
2021/07/26 07:28:28;;;;;;;15.55;10.73;;;18.70;99.90;;;18.04;96.80;100992.13;4168823;28;20029;-76
2021/07/26 07:30:29;;;;;;;14.30;12.00;;;18.70;99.90;;;18.20;96.44;101005.16;4167220;28;20029;-76
2021/07/26 07:32:32;;;;;;;13.32;10.95;;;18.70;99.90;;;18.34;97.09;101007.91;4168801;28;20560;-75
2021/07/26 07:34:33;;;;;;;13.43;10.68;;;18.70;99.90;;;18.24;97.84;100998.41;4167499;28;20029;-76
2021/07/26 07:36:34;;;;;;;12.32;10.45;;;18.80;99.90;;;18.30;97.63;101007.47;4168705;28;20029;-76
2021/07/26 07:38:35;;;;;;;15.48;11.80;;;18.80;99.90;;;18.42;96.32;101011.22;4168474;28;20029;-76
2021/07/26 07:40:37;;;;;;;15.00;10.75;;;18.90;99.90;;;18.48;94.98;100999.72;4167511;28;20030;-76
2021/07/26 07:42:38;;;;;;;14.70;10.57;;;19.00;99.90;;;18.52;93.08;101003.66;4168582;28;20409;-76
2021/07/26 07:44:39;;;;;;;11.73;9.68;;;19.10;99.90;;;18.58;93.68;101012.72;4150862;28;20025;-76
2021/07/26 07:46:40;;;;;;;13.55;11.20;;;19.10;99.90;;;18.70;92.87;101011.09;4183839;28;20037;-76
2021/07/26 07:48:41;;;;;;;13.25;10.50;;;19.20;99.90;;;18.74;91.49;101013.19;4168672;28;20440;-76
2021/07/26 07:50:42;;;;;;;14.15;9.93;;;19.30;99.90;;;18.83;91.27;101015.66;4168591;28;20041;-76
2021/07/26 07:52:42;;;;;;;13.25;10.43;;;19.40;99.90;;;18.88;91.60;101023.88;4168529;28;20441;-76
2021/07/26 07:54:43;;;;;;;13.05;8.77;;;19.40;99.90;;;18.94;90.60;101015.88;4166357;28;20072;-76
2021/07/26 07:56:46;;;;;;;14.02;9.93;;;19.40;99.90;;;19.00;91.60;101019.56;4168553;28;20493;-76
2021/07/26 07:58:52;;;;;;;15.02;9.60;;;19.50;99.90;;;19.04;89.89;101002.09;4168163;28;20396;-77
2021/07/26 08:00:58;;;;;;;11.68;8.70;;;19.60;99.90;;;19.20;89.63;101015.09;4168261;28;20101;-76
2021/07/26 08:03:00;;;;;;;12.00;9.35;;;19.80;99.90;;;19.14;87.41;101021.25;4168310;28;20025;-76
2021/07/26 08:05:01;;;;;;;9.85;8.15;;;19.80;99.90;;;19.18;87.99;101009.94;4168299;28;20030;-76
2021/07/26 08:07:03;;;;;;;11.73;8.90;;;19.90;99.90;;;19.25;89.21;101023.31;4150967;28;20030;-76
2021/07/26 08:09:03;;;;;;;9.80;7.43;;;20.00;99.90;;;19.34;89.57;101022.91;4163590;28;20018;-76
2021/07/26 08:11:05;;;;;;;11.90;8.77;;;20.00;99.90;;;19.41;89.80;101006.06;4167220;28;20036;-76
2021/07/26 08:13:06;;;;;;;12.18;8.45;;;20.10;99.90;;;19.52;89.82;101014.28;4168413;28;20025;-76